This is the latest recevied weather packets stored in our database for station/object IW2NIA-3. If no packets are shown the sender has not sent any weather packets the latest 10 day(s).
| Time | Temp. | Humidity | Pressure | Rain* | Wind** | Luminosity | Snow |
|---|---|---|---|---|---|---|---|
| 1787766509 | 26.67° C | 72% | 1016 hPa | 0 mm | - | - | - |
| 1787765606 | 27.22° C | 70% | 1016 hPa | 0 mm | - | - | - |
| 1787764711 | 27.22° C | 71% | 1015.9 hPa | 0 mm | - | - | - |
| 1787763820 | 27.22° C | 71% | 1015.7 hPa | 0 mm | - | - | - |
| 1787762913 | 27.78° C | 70% | 1015.3 hPa | 0 mm | - | - | - |
| 1787762014 | 27.78° C | 67% | 1015.4 hPa | 0 mm | - | - | - |
| 1787761111 | 28.33° C | 65% | 1015.5 hPa | 0 mm | - | - | - |
| 1787760224 | 28.89° C | 64% | 1015.4 hPa | 0 mm | - | - | - |
| 1787759320 | 28.33° C | 64% | 1015.4 hPa | 0 mm | - | - | - |
| 1787758415 | 27.78° C | 65% | 1015.5 hPa | 0 mm | - | - | - |
| 1787757512 | 27.78° C | 65% | 1015.4 hPa | 0 mm | - | - | - |
| 1787756609 | 28.33° C | 65% | 1015.6 hPa | 0 mm | - | - | - |
| 1787755721 | 27.78° C | 65% | 1015.3 hPa | 0 mm | - | - | - |
| 1787754820 | 28.33° C | 64% | 1015.3 hPa | 0 mm | - | - | - |
| 1787753911 | 28.33° C | 65% | 1015.5 hPa | 0 mm | - | - | - |
| 1787753028 | 28.33° C | 67% | 1015.9 hPa | 0 mm | - | - | - |
| 1787752109 | 28.33° C | 67% | 1016.2 hPa | 0 mm | - | - | - |
| 1787751221 | 28.33° C | 64% | 1016.1 hPa | 0 mm | - | - | - |
| 1787750316 | 28.33° C | 63% | 1016.1 hPa | 0 mm | - | - | - |
| 1787749411 | 28.89° C | 65% | 1016.3 hPa | 0 mm | - | - | - |
| 1787748514 | 27.78° C | 67% | 1016.3 hPa | 0 mm | - | - | - |
| 1787747624 | 27.78° C | 66% | 1016.3 hPa | 0 mm | - | - | - |
| 1787746719 | 27.78° C | 67% | 1016.4 hPa | 0 mm | - | - | - |
| 1787745811 | 27.22° C | 69% | 1016.4 hPa | 0 mm | - | - | - |
| 1787744924 | 26.11° C | 73% | 1016.5 hPa | 0 mm | - | - | - |
* Rain latest hour (hover to see other rain measurements)
** Current wind speed in m/s (hover to see current wind gust speed)